Wetterstation Vordersexau
Wetterdaten: Woche 10.09.12 - 16.09.12 (KW37)
Datum Zeit Temp. A. Feuchte A. Luftdruck Regen Wind Richtung Taupunkt Windchill Windben
10.09.2012 00:00 16,1 C 81 % 1013,9 hPa 0,0 l/m 0,0 km/h SO 12,8 C 16,1 C 0,0 km/h
10.09.2012 01:00 16,4 C 80 % 1013,9 hPa 0,0 l/m 0,0 km/h SO 12,9 C 16,4 C 0,0 km/h
10.09.2012 02:00 15,8 C 80 % 1014,2 hPa 0,0 l/m 0,0 km/h SO 12,4 C 15,8 C 0,0 km/h
10.09.2012 03:00 15,1 C 81 % 1014,1 hPa 0,0 l/m 0,0 km/h S-SO 11,9 C 15,1 C 0,0 km/h
10.09.2012 04:00 14,6 C 81 % 1014,2 hPa 0,0 l/m 0,0 km/h SO 11,4 C 14,6 C 0,0 km/h
10.09.2012 05:00 14,4 C 82 % 1014,1 hPa 0,0 l/m 0,0 km/h O-SO 11,4 C 14,4 C 0,0 km/h
10.09.2012 06:00 12,6 C 83 % 1014,5 hPa 0,0 l/m 0,0 km/h O-NO 9,8 C 12,6 C 0,0 km/h
10.09.2012 07:00 12,4 C 82 % 1014,8 hPa 0,0 l/m 0,0 km/h SO 9,4 C 12,4 C 0,0 km/h
10.09.2012 08:00 14,7 C 82 % 1015,1 hPa 0,0 l/m 0,0 km/h SO 11,7 C 14,7 C 0,0 km/h
10.09.2012 09:00 21,3 C 74 % 1015,0 hPa 0,0 l/m 0,0 km/h SO 16,5 C 21,3 C 0,0 km/h
10.09.2012 10:00 26,3 C 59 % 1015,3 hPa 0,0 l/m 0,0 km/h S-SW 17,6 C 26,3 C 0,0 km/h
10.09.2012 11:00 33,6 C 40 % 1015,1 hPa 0,0 l/m 0,0 km/h W 18,1 C 33,6 C 0,0 km/h
10.09.2012 12:00 33,1 C 39 % 1014,7 hPa 0,0 l/m 0,0 km/h W-SW 17,3 C 33,1 C 0,0 km/h
10.09.2012 13:00 32,4 C 41 % 1014,6 hPa 0,0 l/m 0,0 km/h W-NW 17,4 C 32,4 C 0,0 km/h
10.09.2012 14:00 32,7 C 36 % 1014,4 hPa 0,0 l/m 0,0 km/h S 15,6 C 32,7 C 0,0 km/h
10.09.2012 15:00 36,4 C 26 % 1014,1 hPa 0,0 l/m 0,0 km/h N-NO 13,8 C 36,4 C 0,0 km/h
10.09.2012 16:00 37,9 C 23 % 1013,6 hPa 0,0 l/m 0,0 km/h W 13,1 C 37,9 C 0,0 km/h
10.09.2012 17:00 31,0 C 32 % 1013,4 hPa 0,0 l/m 0,0 km/h W-NW 12,3 C 31,0 C 0,0 km/h
10.09.2012 18:00 29,4 C 45 % 1013,6 hPa 0,0 l/m 0,0 km/h SO 16,2 C 29,4 C 0,0 km/h
10.09.2012 19:00 26,7 C 48 % 1013,3 hPa 0,0 l/m 0,0 km/h SO 14,8 C 26,7 C 0,0 km/h
10.09.2012 20:00 19,5 C 64 % 1013,6 hPa 0,0 l/m 0,0 km/h SO 12,5 C 19,5 C 0,0 km/h
10.09.2012 21:00 17,6 C 71 % 1014,3 hPa 0,0 l/m 0,0 km/h O-SO 12,3 C 17,6 C 0,0 km/h
10.09.2012 22:00 16,5 C 74 % 1014,1 hPa 0,0 l/m 0,0 km/h SO 11,8 C 16,5 C 0,0 km/h
10.09.2012 23:00 15,9 C 75 % 1014,2 hPa 0,0 l/m 0,0 km/h SO 11,5 C 15,9 C 0,0 km/h
11.09.2012 00:00 15,4 C 75 % 1014,1 hPa 0,0 l/m 0,0 km/h SO 11,0 C 15,4 C 0,0 km/h
11.09.2012 01:00 14,6 C 76 % 1014,0 hPa 0,0 l/m 0,0 km/h SO 10,4 C 14,6 C 0,0 km/h
11.09.2012 02:00 13,6 C 77 % 1013,5 hPa 0,0 l/m 0,0 km/h O-NO 9,6 C 13,6 C 0,0 km/h
11.09.2012 03:00 13,8 C 79 % 1013,5 hPa 0,0 l/m 0,0 km/h O-NO 10,2 C 13,8 C 0,0 km/h
11.09.2012 04:00 12,9 C 81 % 1013,7 hPa 0,0 l/m 0,0 km/h SO 9,7 C 12,9 C 0,0 km/h
11.09.2012 05:00 13,8 C 81 % 1013,3 hPa 0,0 l/m 0,0 km/h O 10,6 C 13,8 C 0,0 km/h
11.09.2012 06:00 14,5 C 79 % 1013,1 hPa 0,0 l/m 0,0 km/h SO 10,9 C 14,5 C 0,0 km/h
11.09.2012 07:00 14,8 C 79 % 1013,1 hPa 0,0 l/m 0,0 km/h SO 11,2 C 14,8 C 0,0 km/h
11.09.2012 08:00 16,5 C 78 % 1013,1 hPa 0,0 l/m 0,0 km/h SO 12,6 C 16,5 C 0,0 km/h
11.09.2012 09:00 18,9 C 74 % 1013,3 hPa 0,0 l/m 0,0 km/h W 14,2 C 18,9 C 0,0 km/h
11.09.2012 10:00 24,9 C 58 % 1013,3 hPa 0,0 l/m 0,0 km/h W-SW 16,1 C 24,9 C 0,0 km/h
11.09.2012 11:00 24,3 C 55 % 1013,6 hPa 0,0 l/m 0,0 km/h W 14,7 C 24,3 C 0,0 km/h
11.09.2012 12:00 26,4 C 56 % 1013,5 hPa 0,0 l/m 0,0 km/h SW 16,9 C 26,4 C 0,0 km/h
11.09.2012 13:00 25,3 C 56 % 1012,7 hPa 0,0 l/m 0,0 km/h S 15,9 C 25,3 C 0,0 km/h
11.09.2012 14:00 18,1 C 81 % 1014,7 hPa 3,9 l/m 0,0 km/h O-SO 14,8 C 18,1 C 0,0 km/h
11.09.2012 15:00 20,9 C 79 % 1013,1 hPa 0,7 l/m 0,0 km/h S-SO 17,1 C 20,9 C 0,0 km/h
11.09.2012 16:00 23,8 C 66 % 1012,3 hPa 0,0 l/m 0,0 km/h S 17,1 C 23,8 C 0,0 km/h
11.09.2012 17:00 21,9 C 71 % 1012,3 hPa 0,0 l/m 0,0 km/h O 16,4 C 21,9 C 0,0 km/h
11.09.2012 18:00 16,8 C 82 % 1013,3 hPa 1,4 l/m 0,0 km/h SO 13,7 C 16,8 C 0,0 km/h
11.09.2012 19:00 16,8 C 81 % 1013,0 hPa 0,4 l/m 0,0 km/h O-NO 13,5 C 16,8 C 0,0 km/h
11.09.2012 20:00 16,5 C 81 % 1012,9 hPa 0,4 l/m 0,0 km/h N-NO 13,2 C 16,5 C 0,0 km/h
11.09.2012 21:00 16,6 C 79 % 1013,1 hPa 0,0 l/m 0,0 km/h S-SO 12,9 C 16,6 C 0,0 km/h
11.09.2012 22:00 17,3 C 78 % 1013,0 hPa 0,0 l/m 0,0 km/h W-SW 13,4 C 17,3 C 0,0 km/h
11.09.2012 23:00 16,8 C 78 % 1012,5 hPa 0,0 l/m 0,0 km/h SW 12,9 C 16,8 C 0,0 km/h
12.09.2012 00:00 16,4 C 77 % 1012,0 hPa 0,0 l/m 0,0 km/h N-NO 12,4 C 16,4 C 0,0 km/h
12.09.2012 01:00 16,4 C 76 % 1011,9 hPa 0,0 l/m 0,0 km/h W-NW 12,2 C 16,4 C 0,0 km/h
12.09.2012 02:00 16,4 C 71 % 1012,2 hPa 0,4 l/m 0,0 km/h N-NO 11,1 C 16,4 C 0,0 km/h
12.09.2012 03:00 14,1 C 83 % 1012,8 hPa 0,0 l/m 0,0 km/h N-NO 11,3 C 14,1 C 0,0 km/h
12.09.2012 04:00 13,6 C 83 % 1013,2 hPa 0,0 l/m 0,0 km/h O-SO 10,8 C 13,6 C 0,0 km/h
12.09.2012 05:00 12,9 C 83 % 1013,3 hPa 0,0 l/m 0,0 km/h S-SW 10,1 C 12,9 C 0,0 km/h
12.09.2012 06:00 12,8 C 81 % 1013,3 hPa 0,4 l/m 0,0 km/h W 9,6 C 12,8 C 0,0 km/h
12.09.2012 07:00 11,9 C 84 % 1013,9 hPa 0,0 l/m 0,0 km/h O-SO 9,3 C 11,9 C 0,0 km/h
12.09.2012 08:00 12,4 C 83 % 1013,8 hPa 0,0 l/m 0,0 km/h S-SO 9,6 C 12,4 C 0,0 km/h
12.09.2012 09:00 13,1 C 83 % 1014,1 hPa 0,0 l/m 0,0 km/h O-NO 10,3 C 13,1 C 0,0 km/h
12.09.2012 10:00 13,9 C 82 % 1014,5 hPa 0,0 l/m 0,0 km/h S 10,9 C 13,9 C 0,0 km/h
12.09.2012 11:00 14,2 C 78 % 1015,2 hPa 0,0 l/m 0,0 km/h S 10,4 C 14,2 C 0,0 km/h
12.09.2012 12:00 15,6 C 72 % 1014,9 hPa 0,0 l/m 0,0 km/h W 10,6 C 15,6 C 0,0 km/h
12.09.2012 13:00 17,8 C 73 % 1013,9 hPa 0,0 l/m 0,0 km/h W-SW 12,9 C 17,8 C 0,0 km/h
12.09.2012 14:00 18,9 C 61 % 1012,8 hPa 0,0 l/m 0,0 km/h W-SW 11,2 C 18,9 C 0,0 km/h
12.09.2012 15:00 17,6 C 56 % 1012,5 hPa 0,0 l/m 0,0 km/h O 8,7 C 17,6 C 0,0 km/h
12.09.2012 16:00 12,6 C 77 % 1013,2 hPa 0,0 l/m 0,0 km/h S-SO 8,7 C 12,6 C 0,0 km/h
12.09.2012 17:00 12,9 C 79 % 1013,2 hPa 0,4 l/m 0,0 km/h S 9,3 C 12,9 C 0,0 km/h
12.09.2012 18:00 13,6 C 81 % 1013,3 hPa 0,0 l/m 0,0 km/h SO 10,4 C 13,6 C 0,0 km/h
12.09.2012 19:00 11,9 C 82 % 1013,4 hPa 0,0 l/m 0,0 km/h NO 8,9 C 11,9 C 0,0 km/h
12.09.2012 20:00 11,3 C 83 % 1013,6 hPa 0,0 l/m 0,0 km/h NO 8,5 C 11,3 C 0,0 km/h
12.09.2012 21:00 10,9 C 83 % 1014,2 hPa 0,0 l/m 0,0 km/h NO 8,1 C 10,9 C 0,0 km/h
12.09.2012 22:00 10,3 C 82 % 1013,9 hPa 0,0 l/m 0,0 km/h NO 7,4 C 10,3 C 0,0 km/h
12.09.2012 23:00 9,3 C 82 % 1013,9 hPa 0,0 l/m 0,0 km/h O 6,4 C 9,3 C 0,0 km/h
13.09.2012 00:00 8,4 C 82 % 1013,6 hPa 0,0 l/m 0,0 km/h O 5,5 C 8,4 C 0,0 km/h
13.09.2012 01:00 8,1 C 80 % 1013,9 hPa 0,0 l/m 0,0 km/h O-NO 4,9 C 8,1 C 0,0 km/h
13.09.2012 02:00 7,6 C 80 % 1013,4 hPa 0,0 l/m 0,0 km/h O-SO 4,4 C 7,6 C 0,0 km/h
13.09.2012 03:00 6,8 C 80 % 1013,4 hPa 0,0 l/m 0,0 km/h O-SO 3,6 C 6,8 C 0,0 km/h
13.09.2012 04:00 6,5 C 80 % 1013,6 hPa 0,0 l/m 0,0 km/h O-SO 3,3 C 6,5 C 0,0 km/h
13.09.2012 05:00 7,7 C 78 % 1013,5 hPa 0,0 l/m 0,0 km/h O 4,1 C 7,7 C 0,0 km/h
13.09.2012 06:00 8,1 C 76 % 1013,7 hPa 0,0 l/m 0,0 km/h SO 4,1 C 8,1 C 0,0 km/h
13.09.2012 07:00 8,4 C 76 % 1013,9 hPa 0,0 l/m 0,0 km/h SO 4,4 C 8,4 C 0,0 km/h
13.09.2012 08:00 9,6 C 73 % 1013,6 hPa 0,0 l/m 0,0 km/h SO 5,0 C 9,6 C 0,0 km/h
13.09.2012 09:00 10,7 C 71 % 1013,7 hPa 0,0 l/m 0,0 km/h O 5,7 C 10,7 C 0,0 km/h
13.09.2012 10:00 13,5 C 78 % 1014,0 hPa 0,0 l/m 0,0 km/h O-NO 9,7 C 13,5 C 0,0 km/h
13.09.2012 11:00 15,9 C 76 % 1014,4 hPa 0,0 l/m 0,0 km/h SW 11,7 C 15,9 C 0,0 km/h
13.09.2012 12:00 19,5 C 62 % 1014,7 hPa 1,8 l/m 0,0 km/h W-NW 12,0 C 19,5 C 0,0 km/h
13.09.2012 13:00 21,9 C 47 % 1014,6 hPa 0,0 l/m 5,8 km/h O 10,1 C 21,9 C 3,2 km/h
13.09.2012 14:00 21,2 C 48 % 1014,4 hPa 0,0 l/m 0,0 km/h O 9,7 C 21,2 C 0,0 km/h
13.09.2012 15:00 23,5 C 43 % 1014,3 hPa 0,0 l/m 0,0 km/h N-NO 10,2 C 23,5 C 0,0 km/h
13.09.2012 16:00 24,4 C 39 % 1014,4 hPa 0,0 l/m 0,0 km/h N-NO 9,5 C 24,4 C 0,0 km/h
13.09.2012 17:00 26,1 C 35 % 1014,8 hPa 0,0 l/m 24,0 km/h O-NO 9,4 C 23,7 C 13,3 km/h
13.09.2012 18:00 22,4 C 42 % 1015,2 hPa 0,0 l/m 0,0 km/h O 8,9 C 22,4 C 0,0 km/h
13.09.2012 19:00 16,0 C 58 % 1015,6 hPa 0,0 l/m 14,9 km/h O-SO 7,7 C 12,4 C 8,3 km/h
13.09.2012 20:00 12,8 C 72 % 1016,1 hPa 0,0 l/m 0,0 km/h SO 7,9 C 12,8 C 0,0 km/h
13.09.2012 21:00 11,0 C 79 % 1017,1 hPa 0,0 l/m 0,0 km/h SO 7,5 C 11,0 C 0,0 km/h
13.09.2012 22:00 9,6 C 82 % 1017,1 hPa 0,0 l/m 5,2 km/h SO 6,7 C 9,6 C 2,9 km/h
13.09.2012 23:00 8,5 C 83 % 1017,5 hPa 0,0 l/m 0,0 km/h SO 5,8 C 8,5 C 0,0 km/h
14.09.2012 00:00 8,3 C 83 % 1017,2 hPa 0,0 l/m 5,2 km/h SO 5,6 C 8,3 C 2,9 km/h
14.09.2012 01:00 7,5 C 83 % 1017,2 hPa 0,0 l/m 0,0 km/h O-NO 4,8 C 7,5 C 0,0 km/h
14.09.2012 02:00 7,1 C 82 % 1017,3 hPa 0,0 l/m 0,0 km/h SO 4,2 C 7,1 C 0,0 km/h
14.09.2012 03:00 6,7 C 82 % 1016,8 hPa 0,0 l/m 0,0 km/h O-NO 3,8 C 6,7 C 0,0 km/h
14.09.2012 04:00 6,1 C 81 % 1017,1 hPa 0,0 l/m 0,0 km/h SO 3,1 C 6,1 C 0,0 km/h
14.09.2012 05:00 5,4 C 82 % 1017,1 hPa 0,0 l/m 0,0 km/h SO 2,6 C 5,4 C 0,0 km/h
14.09.2012 06:00 5,6 C 81 % 1017,1 hPa 0,0 l/m 0,0 km/h NO 2,6 C 5,6 C 0,0 km/h
14.09.2012 07:00 5,4 C 81 % 1017,1 hPa 0,0 l/m 0,0 km/h O-SO 2,4 C 5,4 C 0,0 km/h
14.09.2012 08:00 6,4 C 78 % 1017,1 hPa 0,0 l/m 0,0 km/h S-SO 2,8 C 6,4 C 0,0 km/h
14.09.2012 09:00 10,1 C 65 % 1017,0 hPa 0,0 l/m 16,2 km/h S-SO 3,8 C 4,8 C 9,0 km/h
14.09.2012 10:00 16,9 C 69 % 1016,8 hPa 0,0 l/m 0,0 km/h W-SW 11,2 C 16,9 C 0,0 km/h
14.09.2012 11:00 21,8 C 54 % 1016,3 hPa 0,0 l/m 3,9 km/h W-SW 12,1 C 21,8 C 2,2 km/h
14.09.2012 12:00 22,9 C 48 % 1015,8 hPa 0,0 l/m 15,6 km/h S-SW 11,3 C 20,7 C 8,6 km/h
14.09.2012 13:00 21,9 C 45 % 1015,1 hPa 0,0 l/m 7,8 km/h W-SW 9,4 C 21,4 C 4,3 km/h
14.09.2012 14:00 22,6 C 42 % 1014,6 hPa 0,0 l/m 0,0 km/h NW 9,0 C 22,6 C 0,0 km/h
14.09.2012 15:00 25,1 C 37 % 1013,9 hPa 0,0 l/m 0,0 km/h W-NW 9,4 C 25,1 C 0,0 km/h
14.09.2012 16:00 25,8 C 37 % 1013,2 hPa 0,0 l/m 12,3 km/h W-SW 10,0 C 24,7 C 6,8 km/h
14.09.2012 17:00 25,4 C 37 % 1012,7 hPa 0,0 l/m 8,4 km/h W-SW 9,6 C 24,9 C 4,7 km/h
14.09.2012 18:00 24,1 C 41 % 1012,4 hPa 0,0 l/m 1,3 km/h SW 10,0 C 24,1 C 0,7 km/h
14.09.2012 19:00 18,7 C 52 % 1012,6 hPa 0,0 l/m 24,0 km/h W 8,6 C 13,8 C 13,3 km/h
14.09.2012 20:00 14,9 C 64 % 1013,3 hPa 0,0 l/m 5,2 km/h W-NW 8,2 C 14,9 C 2,9 km/h
14.09.2012 21:00 13,3 C 71 % 1014,0 hPa 0,0 l/m 0,0 km/h N-NO 8,2 C 13,3 C 0,0 km/h
14.09.2012 22:00 12,5 C 79 % 1014,1 hPa 0,0 l/m 3,2 km/h W 9,0 C 12,5 C 1,8 km/h
14.09.2012 23:00 13,7 C 76 % 1014,8 hPa 0,0 l/m 0,0 km/h S 9,5 C 13,7 C 0,0 km/h
15.09.2012 00:00 13,5 C 78 % 1014,5 hPa 0,0 l/m 0,0 km/h NO 9,7 C 13,5 C 0,0 km/h
15.09.2012 01:00 13,4 C 80 % 1014,7 hPa 0,0 l/m 0,0 km/h N-NO 10,0 C 13,4 C 0,0 km/h
15.09.2012 02:00 13,3 C 81 % 1014,9 hPa 0,0 l/m 0,0 km/h N-NO 10,1 C 13,3 C 0,0 km/h
15.09.2012 03:00 12,8 C 81 % 1014,7 hPa 0,0 l/m 0,0 km/h N-NO 9,6 C 12,8 C 0,0 km/h
15.09.2012 04:00 12,9 C 82 % 1014,9 hPa 0,0 l/m 0,0 km/h N-NO 9,9 C 12,9 C 0,0 km/h
15.09.2012 05:00 12,9 C 82 % 1014,8 hPa 0,0 l/m 0,0 km/h N-NO 9,9 C 12,9 C 0,0 km/h
15.09.2012 06:00 12,6 C 83 % 1015,4 hPa 0,0 l/m 0,0 km/h SO 9,8 C 12,6 C 0,0 km/h
15.09.2012 07:00 12,3 C 82 % 1015,9 hPa 0,4 l/m 0,0 km/h NO 9,3 C 12,3 C 0,0 km/h
15.09.2012 08:00 12,5 C 81 % 1016,3 hPa 0,0 l/m 0,0 km/h O-SO 9,3 C 12,5 C 0,0 km/h
15.09.2012 09:00 13,8 C 80 % 1016,6 hPa 0,0 l/m 0,0 km/h S-SW 10,4 C 13,8 C 0,0 km/h
15.09.2012 10:00 16,3 C 82 % 1017,1 hPa 0,0 l/m 0,0 km/h N-NO 13,2 C 16,3 C 0,0 km/h
15.09.2012 11:00 17,8 C 76 % 1017,5 hPa 0,0 l/m 0,0 km/h W 13,5 C 17,8 C 0,0 km/h
15.09.2012 12:00 21,4 C 64 % 1017,2 hPa 0,0 l/m 0,0 km/h SO 14,3 C 21,4 C 0,0 km/h
15.09.2012 13:00 20,1 C 65 % 1016,8 hPa 0,0 l/m 5,8 km/h N 13,3 C 20,1 C 3,2 km/h
15.09.2012 14:00 22,9 C 54 % 1016,3 hPa 0,0 l/m 0,0 km/h N-NO 13,1 C 22,9 C 0,0 km/h
15.09.2012 15:00 24,6 C 49 % 1016,3 hPa 0,0 l/m 2,6 km/h NW 13,2 C 24,6 C 1,4 km/h
15.09.2012 16:00 28,6 C 37 % 1015,7 hPa 0,0 l/m 1,3 km/h O-NO 12,5 C 28,6 C 0,7 km/h
15.09.2012 17:00 31,2 C 34 % 1015,6 hPa 0,0 l/m 0,0 km/h N-NO 13,4 C 31,2 C 0,0 km/h
15.09.2012 18:00 28,8 C 36 % 1015,4 hPa 0,0 l/m 0,0 km/h N-NO 12,2 C 28,8 C 0,0 km/h
15.09.2012 19:00 21,9 C 47 % 1015,4 hPa 0,0 l/m 0,0 km/h O-SO 10,1 C 21,9 C 0,0 km/h
15.09.2012 20:00 13,8 C 73 % 1015,9 hPa 0,0 l/m 0,0 km/h SO 9,0 C 13,8 C 0,0 km/h
15.09.2012 21:00 11,6 C 80 % 1016,2 hPa 0,0 l/m 0,0 km/h O-SO 8,3 C 11,6 C 0,0 km/h
15.09.2012 22:00 11,8 C 82 % 1016,2 hPa 0,0 l/m 0,0 km/h O-NO 8,8 C 11,8 C 0,0 km/h
15.09.2012 23:00 10,9 C 83 % 1016,2 hPa 0,0 l/m 0,0 km/h O-SO 8,1 C 10,9 C 0,0 km/h
16.09.2012 00:00 10,4 C 83 % 1016,0 hPa 0,0 l/m 0,0 km/h O-SO 7,6 C 10,4 C 0,0 km/h
16.09.2012 01:00 10,4 C 83 % 1016,0 hPa 0,0 l/m 0,0 km/h NO 7,6 C 10,4 C 0,0 km/h
16.09.2012 02:00 9,3 C 83 % 1016,0 hPa 0,0 l/m 0,0 km/h N-NO 6,6 C 9,3 C 0,0 km/h
16.09.2012 03:00 8,1 C 83 % 1015,9 hPa 0,0 l/m 0,0 km/h N-NO 5,4 C 8,1 C 0,0 km/h
16.09.2012 04:00 7,5 C 82 % 1015,7 hPa 0,0 l/m 0,0 km/h N-NO 4,6 C 7,5 C 0,0 km/h
16.09.2012 05:00 7,3 C 81 % 1015,8 hPa 0,0 l/m 0,0 km/h NO 4,3 C 7,3 C 0,0 km/h
16.09.2012 06:00 7,0 C 80 % 1015,5 hPa 0,0 l/m 0,0 km/h N-NO 3,8 C 7,0 C 0,0 km/h
16.09.2012 07:00 6,8 C 80 % 1015,7 hPa 0,0 l/m 0,0 km/h NO 3,6 C 6,8 C 0,0 km/h
16.09.2012 08:00 8,1 C 78 % 1015,5 hPa 0,0 l/m 0,0 km/h NO 4,5 C 8,1 C 0,0 km/h
16.09.2012 09:00 15,3 C 81 % 1015,4 hPa 0,0 l/m 0,0 km/h N-NW 12,1 C 15,3 C 0,0 km/h
16.09.2012 10:00 19,2 C 67 % 1015,4 hPa 0,4 l/m 1,9 km/h W 12,9 C 19,2 C 1,1 km/h
16.09.2012 11:00 23,0 C 56 % 1015,1 hPa 0,0 l/m 5,8 km/h NW 13,7 C 23,0 C 3,2 km/h
16.09.2012 12:00 24,4 C 51 % 1014,4 hPa 0,0 l/m 0,0 km/h N-NO 13,6 C 24,4 C 0,0 km/h
16.09.2012 13:00 24,7 C 52 % 1014,0 hPa 0,0 l/m 0,0 km/h W 14,2 C 24,7 C 0,0 km/h
16.09.2012 14:00 25,0 C 50 % 1013,1 hPa 0,0 l/m 0,6 km/h SW 13,8 C 25,0 C 0,4 km/h
16.09.2012 15:00 27,1 C 45 % 1012,5 hPa 0,0 l/m 0,0 km/h S-SO 14,1 C 27,1 C 0,0 km/h
16.09.2012 16:00 30,6 C 39 % 1012,1 hPa 0,0 l/m 0,0 km/h SO 15,0 C 30,6 C 0,0 km/h
16.09.2012 17:00 33,7 C 34 % 1011,4 hPa 0,0 l/m 0,0 km/h W 15,6 C 33,7 C 0,0 km/h
16.09.2012 18:00 29,1 C 39 % 1011,3 hPa 0,0 l/m 0,6 km/h W-NW 13,7 C 29,1 C 0,4 km/h
16.09.2012 19:00 21,9 C 55 % 1011,6 hPa 0,0 l/m 0,0 km/h SO 12,4 C 21,9 C 0,0 km/h
16.09.2012 20:00 15,1 C 74 % 1011,6 hPa 0,0 l/m 0,0 km/h O-SO 10,5 C 15,1 C 0,0 km/h
16.09.2012 21:00 13,8 C 80 % 1011,8 hPa 0,0 l/m 0,0 km/h O-NO 10,4 C 13,8 C 0,0 km/h
16.09.2012 22:00 12,8 C 82 % 1011,7 hPa 0,0 l/m 0,0 km/h SO 9,8 C 12,8 C 0,0 km/h
16.09.2012 23:00 12,7 C 82 % 1011,6 hPa 0,0 l/m 3,9 km/h SO 9,7 C 12,7 C 2,2 km/h
Min-Datum _ 14.09.12 10.09.12 16.09.12 - 10.09.12 - 14.09.12 14.09.12 10.09.12
_ Min-Zeit 05:19 16:19 18:19 - 00:19 - 07:19 09:19 00:19
Minimum _ 5,4 C 23 % 1011,3 hPa - 0,0 km/h - 2,4 C 4,8 C 0,0 km/h
Max-Datum _ 10.09.12 12.09.12 13.09.12 11.09.12 13.09.12 - 10.09.12 10.09.12 13.09.12
_ Max-Zeit 16:19 07:19 23:19 14:19 17:19 - 11:19 16:19 17:19
Maximum _ 37,9 C 84 % 1017,5 hPa 3,9 l/m 24,0 km/h
O-NO
- 18,1 C 37,9 C 13,3 km/h
O-NO
Durchschnitt _ 16,7 C 69 % 1014,4 hPa #10,3 l/m 1,0 km/h SO 10,3 C 16,5 C 0,6 km/h
www.sexauwetter.de